sensor_id;sensor_type;location;lat;lon;timestamp;P1;durP1;ratioP1;P2;durP2;ratioP2
73015;SDS011;61893;50.074;14.440;2023-10-13T00:00:30;12.75;;;5.60;;
73015;SDS011;61893;50.074;14.440;2023-10-13T00:03:21;15.93;;;6.38;;
73015;SDS011;61893;50.074;14.440;2023-10-13T00:05:47;14.20;;;5.65;;
73015;SDS011;61893;50.074;14.440;2023-10-13T00:08:18;12.90;;;5.68;;
73015;SDS011;61893;50.074;14.440;2023-10-13T00:10:46;8.73;;;5.45;;
73015;SDS011;61893;50.074;14.440;2023-10-13T00:13:13;13.98;;;6.00;;
73015;SDS011;61893;50.074;14.440;2023-10-13T00:15:41;10.38;;;5.32;;
73015;SDS011;61893;50.074;14.440;2023-10-13T00:18:24;11.65;;;5.35;;
73015;SDS011;61893;50.074;14.440;2023-10-13T00:21:00;8.65;;;5.07;;
73015;SDS011;61893;50.074;14.440;2023-10-13T00:23:37;9.60;;;5.82;;
73015;SDS011;61893;50.074;14.440;2023-10-13T00:26:04;13.00;;;5.45;;
73015;SDS011;61893;50.074;14.440;2023-10-13T00:28:34;10.20;;;5.65;;
73015;SDS011;61893;50.074;14.440;2023-10-13T00:31:27;11.95;;;5.35;;
73015;SDS011;61893;50.074;14.440;2023-10-13T00:34:16;11.25;;;5.25;;
73015;SDS011;61893;50.074;14.440;2023-10-13T00:36:54;10.30;;;5.57;;
73015;SDS011;61893;50.074;14.440;2023-10-13T00:39:38;11.15;;;5.05;;
73015;SDS011;61893;50.074;14.440;2023-10-13T00:42:28;11.20;;;5.20;;
73015;SDS011;61893;50.074;14.440;2023-10-13T00:45:14;10.30;;;5.15;;
73015;SDS011;61893;50.074;14.440;2023-10-13T00:47:43;10.95;;;5.60;;
73015;SDS011;61893;50.074;14.440;2023-10-13T00:50:15;9.93;;;5.82;;
73015;SDS011;61893;50.074;14.440;2023-10-13T00:52:58;13.32;;;5.40;;
73015;SDS011;61893;50.074;14.440;2023-10-13T00:55:25;11.70;;;5.53;;
73015;SDS011;61893;50.074;14.440;2023-10-13T00:58:01;12.00;;;5.95;;
73015;SDS011;61893;50.074;14.440;2023-10-13T01:00:29;10.32;;;5.57;;
73015;SDS011;61893;50.074;14.440;2023-10-13T01:02:56;14.07;;;6.20;;
73015;SDS011;61893;50.074;14.440;2023-10-13T01:05:22;11.95;;;6.07;;
73015;SDS011;61893;50.074;14.440;2023-10-13T01:07:49;11.40;;;6.20;;
73015;SDS011;61893;50.074;14.440;2023-10-13T01:10:22;9.68;;;5.72;;
73015;SDS011;61893;50.074;14.440;2023-10-13T01:13:00;9.45;;;4.90;;
73015;SDS011;61893;50.074;14.440;2023-10-13T01:15:28;9.57;;;5.28;;
73015;SDS011;61893;50.074;14.440;2023-10-13T01:18:08;12.15;;;5.88;;
73015;SDS011;61893;50.074;14.440;2023-10-13T01:20:42;11.90;;;5.43;;
73015;SDS011;61893;50.074;14.440;2023-10-13T01:23:17;11.35;;;5.50;;
73015;SDS011;61893;50.074;14.440;2023-10-13T01:25:44;9.65;;;4.93;;
73015;SDS011;61893;50.074;14.440;2023-10-13T01:28:11;9.63;;;5.38;;
73015;SDS011;61893;50.074;14.440;2023-10-13T01:30:42;12.90;;;5.70;;
73015;SDS011;61893;50.074;14.440;2023-10-13T01:33:17;11.15;;;5.00;;
73015;SDS011;61893;50.074;14.440;2023-10-13T01:35:52;9.90;;;5.40;;
73015;SDS011;61893;50.074;14.440;2023-10-13T01:38:18;10.00;;;5.35;;
73015;SDS011;61893;50.074;14.440;2023-10-13T01:40:44;10.80;;;5.53;;
73015;SDS011;61893;50.074;14.440;2023-10-13T01:43:10;12.70;;;4.97;;
73015;SDS011;61893;50.074;14.440;2023-10-13T01:45:39;9.35;;;5.22;;
73015;SDS011;61893;50.074;14.440;2023-10-13T01:48:12;11.43;;;4.63;;
73015;SDS011;61893;50.074;14.440;2023-10-13T01:50:42;11.77;;;5.38;;
73015;SDS011;61893;50.074;14.440;2023-10-13T01:53:12;8.07;;;5.45;;
73015;SDS011;61893;50.074;14.440;2023-10-13T01:55:39;11.57;;;6.05;;
73015;SDS011;61893;50.074;14.440;2023-10-13T01:58:13;10.70;;;4.75;;
73015;SDS011;61893;50.074;14.440;2023-10-13T02:00:51;11.20;;;5.10;;
73015;SDS011;61893;50.074;14.440;2023-10-13T02:03:28;7.72;;;4.60;;
73015;SDS011;61893;50.074;14.440;2023-10-13T02:05:55;10.60;;;5.28;;
73015;SDS011;61893;50.074;14.440;2023-10-13T02:08:23;8.30;;;5.10;;
73015;SDS011;61893;50.074;14.440;2023-10-13T02:10:53;10.13;;;5.20;;
73015;SDS011;61893;50.074;14.440;2023-10-13T02:13:21;10.30;;;5.20;;
73015;SDS011;61893;50.074;14.440;2023-10-13T02:15:48;8.73;;;5.18;;
73015;SDS011;61893;50.074;14.440;2023-10-13T02:18:32;8.23;;;5.00;;
73015;SDS011;61893;50.074;14.440;2023-10-13T02:21:16;12.18;;;5.50;;
73015;SDS011;61893;50.074;14.440;2023-10-13T02:23:42;15.98;;;6.47;;
73015;SDS011;61893;50.074;14.440;2023-10-13T02:26:11;11.05;;;5.88;;
73015;SDS011;61893;50.074;14.440;2023-10-13T02:28:41;10.85;;;5.32;;
73015;SDS011;61893;50.074;14.440;2023-10-13T02:31:09;13.50;;;6.13;;
73015;SDS011;61893;50.074;14.440;2023-10-13T02:33:37;11.00;;;5.60;;
73015;SDS011;61893;50.074;14.440;2023-10-13T02:36:10;11.90;;;4.90;;
73015;SDS011;61893;50.074;14.440;2023-10-13T02:38:37;12.02;;;5.35;;
73015;SDS011;61893;50.074;14.440;2023-10-13T02:41:04;9.85;;;5.72;;
73015;SDS011;61893;50.074;14.440;2023-10-13T02:43:35;11.95;;;5.45;;
73015;SDS011;61893;50.074;14.440;2023-10-13T02:46:01;14.23;;;5.93;;
73015;SDS011;61893;50.074;14.440;2023-10-13T02:48:30;9.32;;;5.80;;
73015;SDS011;61893;50.074;14.440;2023-10-13T02:51:05;9.93;;;5.80;;
73015;SDS011;61893;50.074;14.440;2023-10-13T02:53:41;9.65;;;5.40;;
73015;SDS011;61893;50.074;14.440;2023-10-13T02:56:18;10.98;;;5.82;;
73015;SDS011;61893;50.074;14.440;2023-10-13T02:58:48;12.90;;;5.78;;
73015;SDS011;61893;50.074;14.440;2023-10-13T03:01:19;9.85;;;5.00;;
73015;SDS011;61893;50.074;14.440;2023-10-13T03:03:47;11.85;;;6.07;;
73015;SDS011;61893;50.074;14.440;2023-10-13T03:06:17;11.95;;;6.55;;
73015;SDS011;61893;50.074;14.440;2023-10-13T03:09:04;9.95;;;5.80;;
73015;SDS011;61893;50.074;14.440;2023-10-13T03:11:47;12.90;;;5.78;;
73015;SDS011;61893;50.074;14.440;2023-10-13T03:14:22;9.60;;;5.82;;
73015;SDS011;61893;50.074;14.440;2023-10-13T03:17:00;9.57;;;6.55;;
73015;SDS011;61893;50.074;14.440;2023-10-13T03:19:31;11.10;;;5.97;;
73015;SDS011;61893;50.074;14.440;2023-10-13T03:22:04;13.52;;;6.93;;
73015;SDS011;61893;50.074;14.440;2023-10-13T03:24:39;13.00;;;6.43;;
73015;SDS011;61893;50.074;14.440;2023-10-13T03:27:20;10.45;;;6.10;;
73015;SDS011;61893;50.074;14.440;2023-10-13T03:29:50;13.45;;;6.32;;
73015;SDS011;61893;50.074;14.440;2023-10-13T03:32:31;11.50;;;6.75;;
73015;SDS011;61893;50.074;14.440;2023-10-13T03:34:59;11.35;;;6.25;;
73015;SDS011;61893;50.074;14.440;2023-10-13T03:37:24;12.32;;;6.38;;
73015;SDS011;61893;50.074;14.440;2023-10-13T03:40:09;12.95;;;6.13;;
73015;SDS011;61893;50.074;14.440;2023-10-13T03:42:47;16.35;;;6.88;;
73015;SDS011;61893;50.074;14.440;2023-10-13T03:45:44;9.82;;;5.60;;
73015;SDS011;61893;50.074;14.440;2023-10-13T03:48:14;11.60;;;5.80;;
73015;SDS011;61893;50.074;14.440;2023-10-13T03:51:17;11.63;;;6.45;;
73015;SDS011;61893;50.074;14.440;2023-10-13T03:53:43;10.15;;;6.30;;
73015;SDS011;61893;50.074;14.440;2023-10-13T03:56:29;15.50;;;6.88;;
73015;SDS011;61893;50.074;14.440;2023-10-13T03:59:16;13.45;;;7.32;;
73015;SDS011;61893;50.074;14.440;2023-10-13T04:01:42;10.75;;;6.22;;
73015;SDS011;61893;50.074;14.440;2023-10-13T04:04:17;12.70;;;6.63;;
73015;SDS011;61893;50.074;14.440;2023-10-13T04:07:03;10.73;;;6.53;;
73015;SDS011;61893;50.074;14.440;2023-10-13T04:09:49;10.65;;;6.47;;
73015;SDS011;61893;50.074;14.440;2023-10-13T04:12:15;14.52;;;6.75;;
73015;SDS011;61893;50.074;14.440;2023-10-13T04:15:06;15.15;;;6.90;;
73015;SDS011;61893;50.074;14.440;2023-10-13T04:18:19;12.05;;;6.90;;
73015;SDS011;61893;50.074;14.440;2023-10-13T04:20:59;14.57;;;6.70;;
73015;SDS011;61893;50.074;14.440;2023-10-13T04:23:58;13.63;;;6.60;;
73015;SDS011;61893;50.074;14.440;2023-10-13T04:26:42;10.48;;;6.47;;
73015;SDS011;61893;50.074;14.440;2023-10-13T04:29:27;12.80;;;7.30;;
73015;SDS011;61893;50.074;14.440;2023-10-13T04:32:14;11.70;;;6.88;;
73015;SDS011;61893;50.074;14.440;2023-10-13T04:35:05;11.50;;;6.40;;
73015;SDS011;61893;50.074;14.440;2023-10-13T04:37:39;11.35;;;6.72;;
73015;SDS011;61893;50.074;14.440;2023-10-13T04:40:24;12.13;;;6.22;;
73015;SDS011;61893;50.074;14.440;2023-10-13T04:42:50;14.18;;;6.32;;
73015;SDS011;61893;50.074;14.440;2023-10-13T04:45:23;10.75;;;6.38;;
73015;SDS011;61893;50.074;14.440;2023-10-13T04:47:57;13.30;;;7.15;;
73015;SDS011;61893;50.074;14.440;2023-10-13T04:51:00;12.35;;;6.72;;
73015;SDS011;61893;50.074;14.440;2023-10-13T04:53:47;16.77;;;7.03;;
73015;SDS011;61893;50.074;14.440;2023-10-13T04:56:31;12.88;;;6.32;;
73015;SDS011;61893;50.074;14.440;2023-10-13T04:59:06;11.85;;;6.40;;
73015;SDS011;61893;50.074;14.440;2023-10-13T05:01:43;11.98;;;6.57;;
73015;SDS011;61893;50.074;14.440;2023-10-13T05:04:33;15.60;;;6.78;;
73015;SDS011;61893;50.074;14.440;2023-10-13T05:07:25;14.95;;;7.13;;
73015;SDS011;61893;50.074;14.440;2023-10-13T05:10:16;15.30;;;7.05;;
73015;SDS011;61893;50.074;14.440;2023-10-13T05:13:18;14.75;;;6.85;;
73015;SDS011;61893;50.074;14.440;2023-10-13T05:16:06;14.85;;;6.95;;
73015;SDS011;61893;50.074;14.440;2023-10-13T05:18:51;9.48;;;6.07;;
73015;SDS011;61893;50.074;14.440;2023-10-13T05:21:35;10.13;;;5.63;;
73015;SDS011;61893;50.074;14.440;2023-10-13T05:24:20;9.05;;;5.78;;
73015;SDS011;61893;50.074;14.440;2023-10-13T05:27:07;10.65;;;6.13;;
73015;SDS011;61893;50.074;14.440;2023-10-13T05:29:54;8.63;;;5.85;;
73015;SDS011;61893;50.074;14.440;2023-10-13T05:32:56;9.18;;;5.55;;
73015;SDS011;61893;50.074;14.440;2023-10-13T05:36:10;11.20;;;6.33;;
73015;SDS011;61893;50.074;14.440;2023-10-13T05:39:21;8.63;;;5.47;;
73015;SDS011;61893;50.074;14.440;2023-10-13T05:43:15;11.02;;;6.10;;
73015;SDS011;61893;50.074;14.440;2023-10-13T05:47:31;11.65;;;5.50;;
73015;SDS011;61893;50.074;14.440;2023-10-13T05:51:53;14.07;;;5.55;;
73015;SDS011;61893;50.074;14.440;2023-10-13T05:55:11;14.43;;;5.78;;
73015;SDS011;61893;50.074;14.440;2023-10-13T06:28:44;11.70;;;4.65;;
73015;SDS011;61893;50.074;14.440;2023-10-13T06:36:33;12.57;;;5.35;;
73015;SDS011;61893;50.074;14.440;2023-10-13T06:55:36;11.82;;;4.57;;
73015;SDS011;61893;50.074;14.440;2023-10-13T06:58:37;10.30;;;5.28;;
73015;SDS011;61893;50.074;14.440;2023-10-13T08:11:45;11.48;;;3.75;;
73015;SDS011;61893;50.074;14.440;2023-10-13T10:40:25;14.32;;;4.32;;
73015;SDS011;61893;50.074;14.440;2023-10-13T10:43:28;8.45;;;4.07;;
73015;SDS011;61893;50.074;14.440;2023-10-13T10:46:45;9.55;;;4.20;;
73015;SDS011;61893;50.074;14.440;2023-10-13T10:50:06;7.80;;;4.32;;
73015;SDS011;61893;50.074;14.440;2023-10-13T11:40:36;10.75;;;4.15;;
73015;SDS011;61893;50.074;14.440;2023-10-13T12:00:55;16.33;;;4.50;;
73015;SDS011;61893;50.074;14.440;2023-10-13T12:04:36;8.65;;;4.15;;
73015;SDS011;61893;50.074;14.440;2023-10-13T14:19:42;7.70;;;3.00;;
73015;SDS011;61893;50.074;14.440;2023-10-13T14:31:34;8.57;;;3.17;;
73015;SDS011;61893;50.074;14.440;2023-10-13T14:35:03;8.88;;;2.97;;
73015;SDS011;61893;50.074;14.440;2023-10-13T14:38:16;7.53;;;3.08;;
73015;SDS011;61893;50.074;14.440;2023-10-13T14:40:57;5.80;;;3.05;;
73015;SDS011;61893;50.074;14.440;2023-10-13T14:43:56;8.93;;;3.00;;
73015;SDS011;61893;50.074;14.440;2023-10-13T14:46:57;8.50;;;3.42;;
73015;SDS011;61893;50.074;14.440;2023-10-13T14:49:58;9.00;;;2.90;;
73015;SDS011;61893;50.074;14.440;2023-10-13T14:53:00;8.38;;;3.25;;
73015;SDS011;61893;50.074;14.440;2023-10-13T15:04:28;9.93;;;3.20;;
73015;SDS011;61893;50.074;14.440;2023-10-13T15:07:06;8.57;;;2.92;;
73015;SDS011;61893;50.074;14.440;2023-10-13T15:09:49;8.27;;;2.90;;
73015;SDS011;61893;50.074;14.440;2023-10-13T15:12:27;7.28;;;2.90;;
73015;SDS011;61893;50.074;14.440;2023-10-13T15:15:18;10.23;;;3.85;;
73015;SDS011;61893;50.074;14.440;2023-10-13T15:17:56;6.25;;;3.20;;
73015;SDS011;61893;50.074;14.440;2023-10-13T15:20:38;11.35;;;3.10;;
73015;SDS011;61893;50.074;14.440;2023-10-13T15:23:47;9.80;;;3.42;;
73015;SDS011;61893;50.074;14.440;2023-10-13T15:26:45;9.65;;;2.90;;
73015;SDS011;61893;50.074;14.440;2023-10-13T15:29:45;7.03;;;2.95;;
73015;SDS011;61893;50.074;14.440;2023-10-13T15:32:33;8.05;;;3.17;;
73015;SDS011;61893;50.074;14.440;2023-10-13T15:35:40;8.20;;;2.88;;
73015;SDS011;61893;50.074;14.440;2023-10-13T15:38:14;8.50;;;3.05;;
73015;SDS011;61893;50.074;14.440;2023-10-13T15:41:01;5.80;;;2.70;;
73015;SDS011;61893;50.074;14.440;2023-10-13T15:47:13;14.65;;;3.10;;
73015;SDS011;61893;50.074;14.440;2023-10-13T15:50:09;7.90;;;3.08;;
73015;SDS011;61893;50.074;14.440;2023-10-13T15:53:23;9.98;;;3.10;;
73015;SDS011;61893;50.074;14.440;2023-10-13T15:56:50;8.00;;;3.00;;
73015;SDS011;61893;50.074;14.440;2023-10-13T16:03:00;7.43;;;3.13;;
73015;SDS011;61893;50.074;14.440;2023-10-13T16:05:54;7.70;;;2.97;;
73015;SDS011;61893;50.074;14.440;2023-10-13T16:08:44;7.25;;;2.70;;
73015;SDS011;61893;50.074;14.440;2023-10-13T16:11:17;11.85;;;3.47;;
73015;SDS011;61893;50.074;14.440;2023-10-13T16:13:44;9.85;;;2.90;;
73015;SDS011;61893;50.074;14.440;2023-10-13T16:16:19;7.65;;;3.20;;
73015;SDS011;61893;50.074;14.440;2023-10-13T16:19:08;18.33;;;4.65;;
73015;SDS011;61893;50.074;14.440;2023-10-13T16:21:40;10.75;;;3.08;;
73015;SDS011;61893;50.074;14.440;2023-10-13T16:25:19;8.80;;;3.00;;
73015;SDS011;61893;50.074;14.440;2023-10-13T16:28:11;8.55;;;3.00;;
73015;SDS011;61893;50.074;14.440;2023-10-13T16:31:26;8.15;;;3.50;;
73015;SDS011;61893;50.074;14.440;2023-10-13T16:34:43;11.95;;;3.33;;
73015;SDS011;61893;50.074;14.440;2023-10-13T16:38:31;12.40;;;3.47;;
73015;SDS011;61893;50.074;14.440;2023-10-13T16:57:39;14.35;;;3.60;;
73015;SDS011;61893;50.074;14.440;2023-10-13T17:00:28;12.02;;;3.50;;
73015;SDS011;61893;50.074;14.440;2023-10-13T17:02:59;10.18;;;3.92;;
73015;SDS011;61893;50.074;14.440;2023-10-13T17:06:07;8.38;;;3.17;;
73015;SDS011;61893;50.074;14.440;2023-10-13T17:08:37;9.05;;;4.07;;
73015;SDS011;61893;50.074;14.440;2023-10-13T17:11:24;9.98;;;3.70;;
73015;SDS011;61893;50.074;14.440;2023-10-13T17:14:23;11.88;;;3.33;;
73015;SDS011;61893;50.074;14.440;2023-10-13T17:17:13;13.40;;;3.45;;
73015;SDS011;61893;50.074;14.440;2023-10-13T17:20:24;6.25;;;2.95;;
73015;SDS011;61893;50.074;14.440;2023-10-13T17:31:29;6.85;;;3.45;;
73015;SDS011;61893;50.074;14.440;2023-10-13T18:01:25;7.68;;;3.55;;
73015;SDS011;61893;50.074;14.440;2023-10-13T18:04:05;8.10;;;3.75;;
73015;SDS011;61893;50.074;14.440;2023-10-13T18:07:38;8.35;;;3.67;;
73015;SDS011;61893;50.074;14.440;2023-10-13T18:10:50;11.15;;;3.72;;
73015;SDS011;61893;50.074;14.440;2023-10-13T18:13:55;11.60;;;4.32;;
73015;SDS011;61893;50.074;14.440;2023-10-13T18:17:12;11.25;;;4.32;;
73015;SDS011;61893;50.074;14.440;2023-10-13T18:20:35;14.00;;;4.75;;
73015;SDS011;61893;50.074;14.440;2023-10-13T18:31:24;12.77;;;4.40;;
73015;SDS011;61893;50.074;14.440;2023-10-13T18:34:04;10.80;;;4.50;;
73015;SDS011;61893;50.074;14.440;2023-10-13T18:36:48;10.55;;;4.47;;
73015;SDS011;61893;50.074;14.440;2023-10-13T18:40:01;11.43;;;4.45;;
73015;SDS011;61893;50.074;14.440;2023-10-13T18:42:42;9.27;;;3.85;;
73015;SDS011;61893;50.074;14.440;2023-10-13T18:46:05;9.18;;;3.53;;
73015;SDS011;61893;50.074;14.440;2023-10-13T18:49:22;7.82;;;3.60;;
73015;SDS011;61893;50.074;14.440;2023-10-13T18:51:51;9.43;;;4.10;;
73015;SDS011;61893;50.074;14.440;2023-10-13T18:54:22;8.43;;;3.60;;
73015;SDS011;61893;50.074;14.440;2023-10-13T18:56:49;9.25;;;3.50;;
73015;SDS011;61893;50.074;14.440;2023-10-13T18:59:20;7.85;;;3.70;;
73015;SDS011;61893;50.074;14.440;2023-10-13T19:01:47;12.82;;;3.92;;
73015;SDS011;61893;50.074;14.440;2023-10-13T19:04:13;10.93;;;3.38;;
73015;SDS011;61893;50.074;14.440;2023-10-13T19:06:40;10.73;;;3.75;;
73015;SDS011;61893;50.074;14.440;2023-10-13T19:11:52;7.93;;;3.53;;
73015;SDS011;61893;50.074;14.440;2023-10-13T19:17:20;11.73;;;3.80;;
73015;SDS011;61893;50.074;14.440;2023-10-13T19:23:53;6.68;;;3.88;;
73015;SDS011;61893;50.074;14.440;2023-10-13T19:27:03;12.23;;;4.63;;
73015;SDS011;61893;50.074;14.440;2023-10-13T19:30:00;11.15;;;3.95;;
73015;SDS011;61893;50.074;14.440;2023-10-13T19:32:54;10.88;;;3.55;;
73015;SDS011;61893;50.074;14.440;2023-10-13T19:36:04;9.60;;;3.65;;
73015;SDS011;61893;50.074;14.440;2023-10-13T19:38:58;9.02;;;3.70;;
73015;SDS011;61893;50.074;14.440;2023-10-13T19:43:00;11.45;;;3.50;;
73015;SDS011;61893;50.074;14.440;2023-10-13T19:46:19;10.43;;;3.80;;
73015;SDS011;61893;50.074;14.440;2023-10-13T19:49:34;10.60;;;3.70;;
73015;SDS011;61893;50.074;14.440;2023-10-13T20:01:05;9.65;;;4.28;;
73015;SDS011;61893;50.074;14.440;2023-10-13T20:03:37;9.32;;;3.45;;
73015;SDS011;61893;50.074;14.440;2023-10-13T20:06:14;13.35;;;4.78;;
73015;SDS011;61893;50.074;14.440;2023-10-13T20:09:06;9.88;;;3.42;;
73015;SDS011;61893;50.074;14.440;2023-10-13T20:12:12;8.75;;;3.72;;
73015;SDS011;61893;50.074;14.440;2023-10-13T20:20:44;12.40;;;3.65;;
73015;SDS011;61893;50.074;14.440;2023-10-13T20:31:33;9.20;;;3.60;;
73015;SDS011;61893;50.074;14.440;2023-10-13T20:34:05;13.68;;;3.53;;
73015;SDS011;61893;50.074;14.440;2023-10-13T20:37:03;9.38;;;4.32;;
73015;SDS011;61893;50.074;14.440;2023-10-13T20:40:09;10.98;;;4.68;;
73015;SDS011;61893;50.074;14.440;2023-10-13T20:42:59;8.00;;;3.70;;
73015;SDS011;61893;50.074;14.440;2023-10-13T20:45:41;11.68;;;3.95;;
73015;SDS011;61893;50.074;14.440;2023-10-13T20:48:13;10.10;;;3.90;;
73015;SDS011;61893;50.074;14.440;2023-10-13T20:51:09;16.17;;;4.10;;
73015;SDS011;61893;50.074;14.440;2023-10-13T20:54:15;11.57;;;3.88;;
73015;SDS011;61893;50.074;14.440;2023-10-13T20:57:16;9.57;;;3.53;;
73015;SDS011;61893;50.074;14.440;2023-10-13T21:01:14;7.03;;;3.30;;
73015;SDS011;61893;50.074;14.440;2023-10-13T21:04:36;8.45;;;2.92;;
73015;SDS011;61893;50.074;14.440;2023-10-13T21:08:09;10.45;;;3.08;;
73015;SDS011;61893;50.074;14.440;2023-10-13T21:11:25;8.35;;;3.60;;
73015;SDS011;61893;50.074;14.440;2023-10-13T21:15:21;9.25;;;3.35;;
73015;SDS011;61893;50.074;14.440;2023-10-13T21:18:49;10.15;;;3.47;;
73015;SDS011;61893;50.074;14.440;2023-10-13T21:22:01;7.70;;;3.80;;
73015;SDS011;61893;50.074;14.440;2023-10-13T21:25:13;9.55;;;3.70;;
73015;SDS011;61893;50.074;14.440;2023-10-13T21:29:27;10.55;;;3.47;;
73015;SDS011;61893;50.074;14.440;2023-10-13T21:32:37;7.70;;;3.38;;
73015;SDS011;61893;50.074;14.440;2023-10-13T21:35:31;6.72;;;3.33;;
73015;SDS011;61893;50.074;14.440;2023-10-13T21:38:16;9.32;;;4.18;;
73015;SDS011;61893;50.074;14.440;2023-10-13T21:41:14;8.02;;;3.60;;
73015;SDS011;61893;50.074;14.440;2023-10-13T21:43:56;10.90;;;3.50;;
73015;SDS011;61893;50.074;14.440;2023-10-13T21:46:48;6.82;;;3.60;;
73015;SDS011;61893;50.074;14.440;2023-10-13T21:49:38;13.38;;;3.40;;
73015;SDS011;61893;50.074;14.440;2023-10-13T21:55:44;6.82;;;3.70;;
73015;SDS011;61893;50.074;14.440;2023-10-13T21:58:46;11.95;;;3.53;;
73015;SDS011;61893;50.074;14.440;2023-10-13T22:01:53;9.23;;;3.75;;
73015;SDS011;61893;50.074;14.440;2023-10-13T22:04:33;8.65;;;2.90;;
73015;SDS011;61893;50.074;14.440;2023-10-13T22:07:44;10.07;;;3.45;;
73015;SDS011;61893;50.074;14.440;2023-10-13T22:10:26;7.85;;;3.58;;
73015;SDS011;61893;50.074;14.440;2023-10-13T22:12:58;9.00;;;3.10;;
73015;SDS011;61893;50.074;14.440;2023-10-13T22:16:22;12.35;;;3.20;;
73015;SDS011;61893;50.074;14.440;2023-10-13T22:18:54;11.23;;;3.33;;
73015;SDS011;61893;50.074;14.440;2023-10-13T22:21:22;13.40;;;3.53;;
73015;SDS011;61893;50.074;14.440;2023-10-13T22:24:15;11.20;;;3.33;;
73015;SDS011;61893;50.074;14.440;2023-10-13T22:27:40;7.50;;;3.33;;
73015;SDS011;61893;50.074;14.440;2023-10-13T22:31:23;9.50;;;3.58;;
73015;SDS011;61893;50.074;14.440;2023-10-13T22:34:50;9.63;;;3.22;;
73015;SDS011;61893;50.074;14.440;2023-10-13T22:37:37;8.15;;;3.58;;
73015;SDS011;61893;50.074;14.440;2023-10-13T22:41:35;12.00;;;3.72;;
73015;SDS011;61893;50.074;14.440;2023-10-13T22:44:55;9.50;;;3.40;;
73015;SDS011;61893;50.074;14.440;2023-10-13T22:47:22;7.70;;;2.97;;
73015;SDS011;61893;50.074;14.440;2023-10-13T22:50:06;9.88;;;3.33;;
73015;SDS011;61893;50.074;14.440;2023-10-13T22:52:41;13.75;;;2.85;;
73015;SDS011;61893;50.074;14.440;2023-10-13T22:55:21;8.55;;;3.35;;
73015;SDS011;61893;50.074;14.440;2023-10-13T22:58:13;9.27;;;2.95;;
73015;SDS011;61893;50.074;14.440;2023-10-13T23:01:05;6.93;;;2.97;;
73015;SDS011;61893;50.074;14.440;2023-10-13T23:03:33;9.27;;;2.97;;
73015;SDS011;61893;50.074;14.440;2023-10-13T23:06:23;8.75;;;2.78;;
73015;SDS011;61893;50.074;14.440;2023-10-13T23:09:08;10.18;;;3.05;;
73015;SDS011;61893;50.074;14.440;2023-10-13T23:11:59;10.68;;;3.00;;
73015;SDS011;61893;50.074;14.440;2023-10-13T23:14:38;7.32;;;3.22;;
73015;SDS011;61893;50.074;14.440;2023-10-13T23:17:17;8.38;;;3.20;;
73015;SDS011;61893;50.074;14.440;2023-10-13T23:20:23;8.35;;;3.58;;
73015;SDS011;61893;50.074;14.440;2023-10-13T23:23:09;6.57;;;2.65;;
73015;SDS011;61893;50.074;14.440;2023-10-13T23:26:01;8.30;;;3.17;;
73015;SDS011;61893;50.074;14.440;2023-10-13T23:30:08;9.10;;;3.13;;
73015;SDS011;61893;50.074;14.440;2023-10-13T23:33:04;8.30;;;3.30;;
73015;SDS011;61893;50.074;14.440;2023-10-13T23:35:56;7.47;;;3.03;;
73015;SDS011;61893;50.074;14.440;2023-10-13T23:38:44;11.77;;;2.88;;
73015;SDS011;61893;50.074;14.440;2023-10-13T23:41:29;9.60;;;2.92;;
73015;SDS011;61893;50.074;14.440;2023-10-13T23:44:12;7.20;;;3.58;;
73015;SDS011;61893;50.074;14.440;2023-10-13T23:46:51;12.18;;;5.22;;
73015;SDS011;61893;50.074;14.440;2023-10-13T23:49:23;7.28;;;3.08;;
73015;SDS011;61893;50.074;14.440;2023-10-13T23:51:54;11.25;;;3.03;;
73015;SDS011;61893;50.074;14.440;2023-10-13T23:54:30;10.10;;;3.65;;
73015;SDS011;61893;50.074;14.440;2023-10-13T23:57:16;11.70;;;3.28;;
